Lynchburg, Virginia
Current Conditions -  °F | °C
As of 3:54 PM on Saturday 25 Oct 2014 (Local Time) from KLYH Reporting Station
Clear Clear  
Wind Chill: 21°   Ceiling: Unl
Heat Index: 21°   Visibility: 10mi
Dew Point:   Wind: 7mph
Humidity: 36%   Direction: NA
Pressure: 29.89"   Gusts: NA
Location:  37.4°N, 79.15°W
Report Text: KLYH 251954Z VRB06KT 10SM CLR 21/05 A2989 RMK AO2 SLP120 T02060050 $
Loading
Personal Weather Stations






























Interactive Weather Map
Tropical Storm Tracking
New forecast layout! Learn more

10-Day Weather Forecast

Advertisements
Track Severe Weather on mobile